sensor_id;sensor_type;location;lat;lon;timestamp;temperature;humidity
1680;DHT22;838;51.794;12.258;2023-04-03T00:01:13;1.50;18.40
1680;DHT22;838;51.794;12.258;2023-04-03T00:03:39;1.50;18.40
1680;DHT22;838;51.794;12.258;2023-04-03T00:06:05;1.50;18.70
1680;DHT22;838;51.794;12.258;2023-04-03T00:08:35;1.50;18.70
1680;DHT22;838;51.794;12.258;2023-04-03T00:11:02;1.50;18.20
1680;DHT22;838;51.794;12.258;2023-04-03T00:13:28;1.60;17.30
1680;DHT22;838;51.794;12.258;2023-04-03T00:15:54;1.50;17.80
1680;DHT22;838;51.794;12.258;2023-04-03T00:18:20;1.50;18.20
1680;DHT22;838;51.794;12.258;2023-04-03T00:20:46;1.50;18.00
1680;DHT22;838;51.794;12.258;2023-04-03T00:23:11;1.50;18.00
1680;DHT22;838;51.794;12.258;2023-04-03T00:25:37;1.50;17.80
1680;DHT22;838;51.794;12.258;2023-04-03T00:28:04;1.50;18.00
1680;DHT22;838;51.794;12.258;2023-04-03T00:30:30;1.50;17.90
1680;DHT22;838;51.794;12.258;2023-04-03T00:32:56;1.50;17.40
1680;DHT22;838;51.794;12.258;2023-04-03T00:35:23;1.40;17.40
1680;DHT22;838;51.794;12.258;2023-04-03T00:37:51;1.40;17.60
1680;DHT22;838;51.794;12.258;2023-04-03T00:40:17;1.40;17.50
1680;DHT22;838;51.794;12.258;2023-04-03T00:42:46;1.30;18.30
1680;DHT22;838;51.794;12.258;2023-04-03T00:45:25;1.30;17.90
1680;DHT22;838;51.794;12.258;2023-04-03T00:47:53;1.30;18.30
1680;DHT22;838;51.794;12.258;2023-04-03T00:50:19;1.40;17.60
1680;DHT22;838;51.794;12.258;2023-04-03T00:52:45;1.40;17.70
1680;DHT22;838;51.794;12.258;2023-04-03T00:55:14;1.40;18.20
1680;DHT22;838;51.794;12.258;2023-04-03T00:57:41;1.50;17.30
1680;DHT22;838;51.794;12.258;2023-04-03T01:00:14;1.50;16.60
1680;DHT22;838;51.794;12.258;2023-04-03T01:02:41;1.40;17.50
1680;DHT22;838;51.794;12.258;2023-04-03T01:05:08;1.40;17.40
1680;DHT22;838;51.794;12.258;2023-04-03T01:07:33;1.50;18.10
1680;DHT22;838;51.794;12.258;2023-04-03T01:10:04;1.50;16.10
1680;DHT22;838;51.794;12.258;2023-04-03T01:12:33;1.40;16.80
1680;DHT22;838;51.794;12.258;2023-04-03T01:15:04;1.40;16.60
1680;DHT22;838;51.794;12.258;2023-04-03T01:25:59;1.40;16.50
1680;DHT22;838;51.794;12.258;2023-04-03T01:28:28;1.40;17.00
1680;DHT22;838;51.794;12.258;2023-04-03T01:33:32;1.40;16.20
1680;DHT22;838;51.794;12.258;2023-04-03T01:35:58;1.20;16.70
1680;DHT22;838;51.794;12.258;2023-04-03T01:38:23;1.00;18.40
1680;DHT22;838;51.794;12.258;2023-04-03T01:40:50;0.90;19.50
1680;DHT22;838;51.794;12.258;2023-04-03T01:43:16;0.90;18.90
1680;DHT22;838;51.794;12.258;2023-04-03T01:45:41;0.80;19.50
1680;DHT22;838;51.794;12.258;2023-04-03T01:48:07;0.80;19.80
1680;DHT22;838;51.794;12.258;2023-04-03T01:50:33;0.70;20.40
1680;DHT22;838;51.794;12.258;2023-04-03T01:52:59;0.60;20.60
1680;DHT22;838;51.794;12.258;2023-04-03T01:55:25;0.60;21.10
1680;DHT22;838;51.794;12.258;2023-04-03T01:57:50;0.50;21.40
1680;DHT22;838;51.794;12.258;2023-04-03T02:00:16;0.50;21.80
1680;DHT22;838;51.794;12.258;2023-04-03T02:02:42;0.50;21.60
1680;DHT22;838;51.794;12.258;2023-04-03T02:05:08;0.50;21.80
1680;DHT22;838;51.794;12.258;2023-04-03T02:07:34;0.50;22.00
1680;DHT22;838;51.794;12.258;2023-04-03T02:09:59;0.40;22.30
1680;DHT22;838;51.794;12.258;2023-04-03T02:12:25;0.40;22.60
1680;DHT22;838;51.794;12.258;2023-04-03T02:14:51;0.40;22.90
1680;DHT22;838;51.794;12.258;2023-04-03T02:17:17;0.50;23.20
1680;DHT22;838;51.794;12.258;2023-04-03T02:19:43;0.50;23.40
1680;DHT22;838;51.794;12.258;2023-04-03T02:22:09;0.30;23.70
1680;DHT22;838;51.794;12.258;2023-04-03T02:24:35;0.30;23.80
1680;DHT22;838;51.794;12.258;2023-04-03T02:27:01;0.30;23.50
1680;DHT22;838;51.794;12.258;2023-04-03T02:29:27;0.20;24.00
1680;DHT22;838;51.794;12.258;2023-04-03T02:31:52;0.20;23.60
1680;DHT22;838;51.794;12.258;2023-04-03T02:34:18;0.20;23.70
1680;DHT22;838;51.794;12.258;2023-04-03T02:36:44;0.20;23.50
1680;DHT22;838;51.794;12.258;2023-04-03T02:39:10;0.30;23.20
1680;DHT22;838;51.794;12.258;2023-04-03T02:41:36;0.20;23.30
1680;DHT22;838;51.794;12.258;2023-04-03T02:44:03;0.20;23.20
1680;DHT22;838;51.794;12.258;2023-04-03T02:46:36;0.20;23.10
1680;DHT22;838;51.794;12.258;2023-04-03T02:49:02;0.20;23.10
1680;DHT22;838;51.794;12.258;2023-04-03T02:51:28;0.20;23.20
1680;DHT22;838;51.794;12.258;2023-04-03T02:53:54;0.20;23.20
1680;DHT22;838;51.794;12.258;2023-04-03T02:56:20;0.20;22.80
1680;DHT22;838;51.794;12.258;2023-04-03T02:58:46;0.20;23.30
1680;DHT22;838;51.794;12.258;2023-04-03T03:01:12;0.20;23.40
1680;DHT22;838;51.794;12.258;2023-04-03T03:03:38;0.30;23.40
1680;DHT22;838;51.794;12.258;2023-04-03T03:06:05;0.10;23.40
1680;DHT22;838;51.794;12.258;2023-04-03T03:08:32;0.10;23.60
1680;DHT22;838;51.794;12.258;2023-04-03T03:10:58;0.10;23.60
1680;DHT22;838;51.794;12.258;2023-04-03T03:13:24;0.10;23.80
1680;DHT22;838;51.794;12.258;2023-04-03T03:15:50;0.00;23.50
1680;DHT22;838;51.794;12.258;2023-04-03T03:18:15;0.00;23.70
1680;DHT22;838;51.794;12.258;2023-04-03T03:20:41;0.10;23.60
1680;DHT22;838;51.794;12.258;2023-04-03T03:23:07;0.00;23.40
1680;DHT22;838;51.794;12.258;2023-04-03T03:25:33;0.30;23.20
1680;DHT22;838;51.794;12.258;2023-04-03T03:27:58;0.30;23.20
1680;DHT22;838;51.794;12.258;2023-04-03T03:30:24;0.10;22.70
1680;DHT22;838;51.794;12.258;2023-04-03T03:32:50;0.10;23.10
1680;DHT22;838;51.794;12.258;2023-04-03T03:35:16;0.00;22.50
1680;DHT22;838;51.794;12.258;2023-04-03T03:37:41;0.00;22.40
1680;DHT22;838;51.794;12.258;2023-04-03T03:40:08;-0.10;22.70
1680;DHT22;838;51.794;12.258;2023-04-03T03:42:33;-0.10;23.30
1680;DHT22;838;51.794;12.258;2023-04-03T03:44:59;-0.20;23.50
1680;DHT22;838;51.794;12.258;2023-04-03T03:47:25;-0.20;23.60
1680;DHT22;838;51.794;12.258;2023-04-03T03:49:51;-0.20;23.90
1680;DHT22;838;51.794;12.258;2023-04-03T03:52:17;-0.20;23.80
1680;DHT22;838;51.794;12.258;2023-04-03T03:54:42;-0.10;23.40
1680;DHT22;838;51.794;12.258;2023-04-03T03:57:08;-0.10;23.30
1680;DHT22;838;51.794;12.258;2023-04-03T03:59:34;-0.10;23.10
1680;DHT22;838;51.794;12.258;2023-04-03T04:02:00;-0.10;23.60
1680;DHT22;838;51.794;12.258;2023-04-03T04:04:26;-0.20;23.30
1680;DHT22;838;51.794;12.258;2023-04-03T04:06:52;-0.10;23.70
1680;DHT22;838;51.794;12.258;2023-04-03T04:09:17;-0.10;22.90
1680;DHT22;838;51.794;12.258;2023-04-03T04:11:43;0.10;23.10
1680;DHT22;838;51.794;12.258;2023-04-03T04:14:10;-0.10;22.60
1680;DHT22;838;51.794;12.258;2023-04-03T04:16:37;0.00;22.40
1680;DHT22;838;51.794;12.258;2023-04-03T04:19:03;0.00;22.50
1680;DHT22;838;51.794;12.258;2023-04-03T04:21:29;0.10;22.00
1680;DHT22;838;51.794;12.258;2023-04-03T04:23:55;0.00;21.80
1680;DHT22;838;51.794;12.258;2023-04-03T04:26:20;0.20;21.70
1680;DHT22;838;51.794;12.258;2023-04-03T04:28:46;0.50;21.20
1680;DHT22;838;51.794;12.258;2023-04-03T04:31:12;0.30;20.00
1680;DHT22;838;51.794;12.258;2023-04-03T04:33:37;0.20;21.00
1680;DHT22;838;51.794;12.258;2023-04-03T04:36:03;0.20;19.70
1680;DHT22;838;51.794;12.258;2023-04-03T04:38:29;0.20;20.40
1680;DHT22;838;51.794;12.258;2023-04-03T04:40:55;0.10;20.60
1680;DHT22;838;51.794;12.258;2023-04-03T04:43:20;-0.10;21.10
1680;DHT22;838;51.794;12.258;2023-04-03T04:45:46;-0.10;22.00
1680;DHT22;838;51.794;12.258;2023-04-03T04:48:12;-0.10;22.70
1680;DHT22;838;51.794;12.258;2023-04-03T04:50:38;-0.20;22.30
1680;DHT22;838;51.794;12.258;2023-04-03T04:53:04;-0.10;22.50
1680;DHT22;838;51.794;12.258;2023-04-03T04:55:30;-0.10;22.20
1680;DHT22;838;51.794;12.258;2023-04-03T04:57:56;0.00;21.60
1680;DHT22;838;51.794;12.258;2023-04-03T05:00:21;0.00;21.60
1680;DHT22;838;51.794;12.258;2023-04-03T05:02:47;0.00;21.40
1680;DHT22;838;51.794;12.258;2023-04-03T05:05:13;0.00;21.50
1680;DHT22;838;51.794;12.258;2023-04-03T05:07:38;0.00;21.00
1680;DHT22;838;51.794;12.258;2023-04-03T05:10:05;0.20;21.70
1680;DHT22;838;51.794;12.258;2023-04-03T05:12:32;0.00;21.60
1680;DHT22;838;51.794;12.258;2023-04-03T05:14:57;0.00;21.60
1680;DHT22;838;51.794;12.258;2023-04-03T05:17:23;0.10;21.20
1680;DHT22;838;51.794;12.258;2023-04-03T05:19:49;0.00;21.30
1680;DHT22;838;51.794;12.258;2023-04-03T05:22:15;0.10;21.50
1680;DHT22;838;51.794;12.258;2023-04-03T05:24:40;0.20;21.40
1680;DHT22;838;51.794;12.258;2023-04-03T05:27:06;0.20;21.10
1680;DHT22;838;51.794;12.258;2023-04-03T05:29:32;0.50;21.00
1680;DHT22;838;51.794;12.258;2023-04-03T05:31:57;0.30;21.10
1680;DHT22;838;51.794;12.258;2023-04-03T05:34:23;0.30;21.00
1680;DHT22;838;51.794;12.258;2023-04-03T05:36:49;0.30;21.00
1680;DHT22;838;51.794;12.258;2023-04-03T05:39:14;0.40;21.20
1680;DHT22;838;51.794;12.258;2023-04-03T05:41:40;0.50;20.60
1680;DHT22;838;51.794;12.258;2023-04-03T05:44:06;0.70;20.40
1680;DHT22;838;51.794;12.258;2023-04-03T05:46:31;1.00;19.20
1680;DHT22;838;51.794;12.258;2023-04-03T05:48:57;1.40;19.60
1680;DHT22;838;51.794;12.258;2023-04-03T05:51:35;2.10;14.50
1680;DHT22;838;51.794;12.258;2023-04-03T05:54:24;3.20;9.50
1680;DHT22;838;51.794;12.258;2023-04-03T05:56:51;4.70;4.00
1680;DHT22;838;51.794;12.258;2023-04-03T05:59:17;5.70;1.00
1680;DHT22;838;51.794;12.258;2023-04-03T06:01:44;6.80;1.00
1680;DHT22;838;51.794;12.258;2023-04-03T06:04:10;7.10;1.00
1680;DHT22;838;51.794;12.258;2023-04-03T06:09:12;8.40;1.00
1680;DHT22;838;51.794;12.258;2023-04-03T06:11:38;8.70;1.00
1680;DHT22;838;51.794;12.258;2023-04-03T06:14:04;8.40;1.00
1680;DHT22;838;51.794;12.258;2023-04-03T06:16:30;8.30;1.00
1680;DHT22;838;51.794;12.258;2023-04-03T06:18:55;8.30;1.00
1680;DHT22;838;51.794;12.258;2023-04-03T06:21:21;8.60;1.00
1680;DHT22;838;51.794;12.258;2023-04-03T06:23:47;9.00;1.00
1680;DHT22;838;51.794;12.258;2023-04-03T06:26:12;9.60;1.00
1680;DHT22;838;51.794;12.258;2023-04-03T06:28:38;10.40;1.00
1680;DHT22;838;51.794;12.258;2023-04-03T06:31:04;11.20;1.00
1680;DHT22;838;51.794;12.258;2023-04-03T06:33:30;10.60;1.00
1680;DHT22;838;51.794;12.258;2023-04-03T06:35:59;11.40;1.00
1680;DHT22;838;51.794;12.258;2023-04-03T06:38:24;12.10;1.00
1680;DHT22;838;51.794;12.258;2023-04-03T06:40:51;13.20;1.00
1680;DHT22;838;51.794;12.258;2023-04-03T06:43:17;13.30;1.00
1680;DHT22;838;51.794;12.258;2023-04-03T06:45:43;13.70;1.00
1680;DHT22;838;51.794;12.258;2023-04-03T06:48:08;14.00;1.00
1680;DHT22;838;51.794;12.258;2023-04-03T06:50:34;13.80;1.00
1680;DHT22;838;51.794;12.258;2023-04-03T06:53:00;14.00;1.00
1680;DHT22;838;51.794;12.258;2023-04-03T06:55:26;14.20;1.00
1680;DHT22;838;51.794;12.258;2023-04-03T06:57:52;13.80;1.00
1680;DHT22;838;51.794;12.258;2023-04-03T07:00:18;12.50;1.00
1680;DHT22;838;51.794;12.258;2023-04-03T07:02:44;11.10;1.00
1680;DHT22;838;51.794;12.258;2023-04-03T07:05:09;11.30;1.00
1680;DHT22;838;51.794;12.258;2023-04-03T07:07:35;9.90;1.00
1680;DHT22;838;51.794;12.258;2023-04-03T07:10:03;8.40;1.00
1680;DHT22;838;51.794;12.258;2023-04-03T07:12:29;8.20;1.00
1680;DHT22;838;51.794;12.258;2023-04-03T07:14:55;7.70;1.00
1680;DHT22;838;51.794;12.258;2023-04-03T07:17:20;7.20;1.00
1680;DHT22;838;51.794;12.258;2023-04-03T07:19:46;7.20;1.00
1680;DHT22;838;51.794;12.258;2023-04-03T07:22:13;7.40;1.00
1680;DHT22;838;51.794;12.258;2023-04-03T07:24:39;7.90;1.00
1680;DHT22;838;51.794;12.258;2023-04-03T07:27:05;7.90;1.00
1680;DHT22;838;51.794;12.258;2023-04-03T07:29:31;8.10;1.00
1680;DHT22;838;51.794;12.258;2023-04-03T07:31:56;8.20;1.00
1680;DHT22;838;51.794;12.258;2023-04-03T07:34:22;8.90;1.00
1680;DHT22;838;51.794;12.258;2023-04-03T07:36:48;8.50;1.00
1680;DHT22;838;51.794;12.258;2023-04-03T07:39:14;8.30;1.00
1680;DHT22;838;51.794;12.258;2023-04-03T07:41:40;7.80;1.00
1680;DHT22;838;51.794;12.258;2023-04-03T07:44:06;7.40;1.00
1680;DHT22;838;51.794;12.258;2023-04-03T07:46:32;7.20;1.00
1680;DHT22;838;51.794;12.258;2023-04-03T07:48:57;7.10;1.00
1680;DHT22;838;51.794;12.258;2023-04-03T07:51:23;6.40;1.00
1680;DHT22;838;51.794;12.258;2023-04-03T07:53:50;6.10;1.00
1680;DHT22;838;51.794;12.258;2023-04-03T07:56:16;5.90;1.00
1680;DHT22;838;51.794;12.258;2023-04-03T07:58:42;5.80;1.00
1680;DHT22;838;51.794;12.258;2023-04-03T08:01:08;6.00;1.00
1680;DHT22;838;51.794;12.258;2023-04-03T08:03:34;6.10;1.00
1680;DHT22;838;51.794;12.258;2023-04-03T08:06:04;6.20;1.00
1680;DHT22;838;51.794;12.258;2023-04-03T08:08:30;6.00;1.00
1680;DHT22;838;51.794;12.258;2023-04-03T08:10:58;6.00;1.00
1680;DHT22;838;51.794;12.258;2023-04-03T08:13:24;6.30;1.00
1680;DHT22;838;51.794;12.258;2023-04-03T08:15:50;6.40;1.00
1680;DHT22;838;51.794;12.258;2023-04-03T08:18:16;6.30;1.00
1680;DHT22;838;51.794;12.258;2023-04-03T08:20:42;5.50;1.00
1680;DHT22;838;51.794;12.258;2023-04-03T08:23:08;5.40;1.00
1680;DHT22;838;51.794;12.258;2023-04-03T08:25:39;5.30;1.00
1680;DHT22;838;51.794;12.258;2023-04-03T08:28:05;4.90;1.00
1680;DHT22;838;51.794;12.258;2023-04-03T08:30:32;4.70;1.00
1680;DHT22;838;51.794;12.258;2023-04-03T08:33:00;4.90;1.00
1680;DHT22;838;51.794;12.258;2023-04-03T08:35:27;4.80;1.00
1680;DHT22;838;51.794;12.258;2023-04-03T08:37:52;5.40;1.00
1680;DHT22;838;51.794;12.258;2023-04-03T08:40:18;7.00;1.00
1680;DHT22;838;51.794;12.258;2023-04-03T08:45:55;7.70;1.00
1680;DHT22;838;51.794;12.258;2023-04-03T08:48:33;8.90;1.00
1680;DHT22;838;51.794;12.258;2023-04-03T08:51:09;9.00;1.00
1680;DHT22;838;51.794;12.258;2023-04-03T08:53:43;7.50;1.00
1680;DHT22;838;51.794;12.258;2023-04-03T08:56:10;6.20;1.00
1680;DHT22;838;51.794;12.258;2023-04-03T08:58:55;5.40;1.00
1680;DHT22;838;51.794;12.258;2023-04-03T09:01:42;5.10;1.00
1680;DHT22;838;51.794;12.258;2023-04-03T09:04:14;4.90;1.00
1680;DHT22;838;51.794;12.258;2023-04-03T09:06:43;4.70;1.00
1680;DHT22;838;51.794;12.258;2023-04-03T09:12:04;5.20;1.00
1680;DHT22;838;51.794;12.258;2023-04-03T09:22:53;9.90;1.00
1680;DHT22;838;51.794;12.258;2023-04-03T09:25:36;10.70;1.00
1680;DHT22;838;51.794;12.258;2023-04-03T09:28:03;10.20;1.00
1680;DHT22;838;51.794;12.258;2023-04-03T09:30:36;10.90;1.00
1680;DHT22;838;51.794;12.258;2023-04-03T09:33:03;11.40;1.00
1680;DHT22;838;51.794;12.258;2023-04-03T09:35:35;11.80;1.00
1680;DHT22;838;51.794;12.258;2023-04-03T09:43:27;8.00;1.00
1680;DHT22;838;51.794;12.258;2023-04-03T09:45:54;7.40;1.00
1680;DHT22;838;51.794;12.258;2023-04-03T09:48:23;7.50;1.00
1680;DHT22;838;51.794;12.258;2023-04-03T09:51:00;7.40;1.00
1680;DHT22;838;51.794;12.258;2023-04-03T09:56:18;7.00;1.00
1680;DHT22;838;51.794;12.258;2023-04-03T09:58:50;7.20;1.00
1680;DHT22;838;51.794;12.258;2023-04-03T10:01:31;7.40;1.00
1680;DHT22;838;51.794;12.258;2023-04-03T10:04:16;7.40;1.00
1680;DHT22;838;51.794;12.258;2023-04-03T10:06:45;7.40;1.00
1680;DHT22;838;51.794;12.258;2023-04-03T10:14:34;6.70;1.00
1680;DHT22;838;51.794;12.258;2023-04-03T10:20:21;6.10;1.00
1680;DHT22;838;51.794;12.258;2023-04-03T10:26:01;6.30;1.00
1680;DHT22;838;51.794;12.258;2023-04-03T10:31:14;6.40;1.00
1680;DHT22;838;51.794;12.258;2023-04-03T10:36:33;7.50;1.00
1680;DHT22;838;51.794;12.258;2023-04-03T10:47:23;7.50;1.00
1680;DHT22;838;51.794;12.258;2023-04-03T10:55:32;7.40;1.00
1680;DHT22;838;51.794;12.258;2023-04-03T10:58:00;6.80;1.00
1680;DHT22;838;51.794;12.258;2023-04-03T11:00:40;6.70;1.00
1680;DHT22;838;51.794;12.258;2023-04-03T11:03:17;6.60;1.00
1680;DHT22;838;51.794;12.258;2023-04-03T11:05:52;6.80;1.00
1680;DHT22;838;51.794;12.258;2023-04-03T11:08:29;7.20;1.00
1680;DHT22;838;51.794;12.258;2023-04-03T11:11:09;7.40;1.00
1680;DHT22;838;51.794;12.258;2023-04-03T11:13:50;7.10;1.00
1680;DHT22;838;51.794;12.258;2023-04-03T11:16:26;6.60;1.00
1680;DHT22;838;51.794;12.258;2023-04-03T11:23:57;6.90;1.00
1680;DHT22;838;51.794;12.258;2023-04-03T11:26:27;7.00;1.00
1680;DHT22;838;51.794;12.258;2023-04-03T11:29:14;7.00;1.00
1680;DHT22;838;51.794;12.258;2023-04-03T11:37:00;7.90;1.00
1680;DHT22;838;51.794;12.258;2023-04-03T11:39:32;8.20;1.00
1680;DHT22;838;51.794;12.258;2023-04-03T11:42:37;8.50;1.00
1680;DHT22;838;51.794;12.258;2023-04-03T11:45:36;8.90;1.00
1680;DHT22;838;51.794;12.258;2023-04-03T11:50:48;7.60;1.00
1680;DHT22;838;51.794;12.258;2023-04-03T11:58:30;7.00;1.00
1680;DHT22;838;51.794;12.258;2023-04-03T12:01:03;6.90;1.00
1680;DHT22;838;51.794;12.258;2023-04-03T12:03:29;6.80;1.00
1680;DHT22;838;51.794;12.258;2023-04-03T12:14:02;6.50;1.00
1680;DHT22;838;51.794;12.258;2023-04-03T12:29:33;7.90;1.00
1680;DHT22;838;51.794;12.258;2023-04-03T12:46:24;6.60;1.00
1680;DHT22;838;51.794;12.258;2023-04-03T12:48:54;6.60;1.00
1680;DHT22;838;51.794;12.258;2023-04-03T12:51:41;6.70;1.00
1680;DHT22;838;51.794;12.258;2023-04-03T12:54:21;6.60;1.00
1680;DHT22;838;51.794;12.258;2023-04-03T12:56:48;6.70;1.00
1680;DHT22;838;51.794;12.258;2023-04-03T12:59:25;6.70;1.00
1680;DHT22;838;51.794;12.258;2023-04-03T13:02:01;6.40;1.00
1680;DHT22;838;51.794;12.258;2023-04-03T13:04:29;6.50;1.00
1680;DHT22;838;51.794;12.258;2023-04-03T13:06:56;6.80;1.00
1680;DHT22;838;51.794;12.258;2023-04-03T13:09:27;6.90;1.00
1680;DHT22;838;51.794;12.258;2023-04-03T13:14:26;7.90;1.00
1680;DHT22;838;51.794;12.258;2023-04-03T13:17:14;8.20;1.00
1680;DHT22;838;51.794;12.258;2023-04-03T13:19:41;8.30;1.00
1680;DHT22;838;51.794;12.258;2023-04-03T13:22:27;8.00;1.00
1680;DHT22;838;51.794;12.258;2023-04-03T13:24:55;8.10;1.00
1680;DHT22;838;51.794;12.258;2023-04-03T13:27:23;7.80;1.00
1680;DHT22;838;51.794;12.258;2023-04-03T13:29:53;7.50;1.00
1680;DHT22;838;51.794;12.258;2023-04-03T13:32:23;7.50;1.00
1680;DHT22;838;51.794;12.258;2023-04-03T13:34:50;7.70;1.00
1680;DHT22;838;51.794;12.258;2023-04-03T13:37:33;8.00;1.00
1680;DHT22;838;51.794;12.258;2023-04-03T13:42:33;8.50;1.00
1680;DHT22;838;51.794;12.258;2023-04-03T13:45:26;8.60;1.00
1680;DHT22;838;51.794;12.258;2023-04-03T13:48:10;8.10;1.00
1680;DHT22;838;51.794;12.258;2023-04-03T13:50:58;7.50;1.00
1680;DHT22;838;51.794;12.258;2023-04-03T13:53:25;7.60;1.00
1680;DHT22;838;51.794;12.258;2023-04-03T13:58:28;6.90;1.00
1680;DHT22;838;51.794;12.258;2023-04-03T14:01:06;7.10;1.00
1680;DHT22;838;51.794;12.258;2023-04-03T14:06:06;6.70;1.00
1680;DHT22;838;51.794;12.258;2023-04-03T14:08:32;6.50;1.00
1680;DHT22;838;51.794;12.258;2023-04-03T14:10:58;6.40;1.00
1680;DHT22;838;51.794;12.258;2023-04-03T14:13:24;6.50;1.00
1680;DHT22;838;51.794;12.258;2023-04-03T14:15:50;6.60;1.00
1680;DHT22;838;51.794;12.258;2023-04-03T14:18:19;6.90;1.00
1680;DHT22;838;51.794;12.258;2023-04-03T14:20:46;6.90;1.00
1680;DHT22;838;51.794;12.258;2023-04-03T14:23:12;6.70;1.00
1680;DHT22;838;51.794;12.258;2023-04-03T14:25:39;6.90;1.00
1680;DHT22;838;51.794;12.258;2023-04-03T14:28:18;7.00;1.00
1680;DHT22;838;51.794;12.258;2023-04-03T14:30:45;7.20;1.00
1680;DHT22;838;51.794;12.258;2023-04-03T14:33:19;6.90;1.00
1680;DHT22;838;51.794;12.258;2023-04-03T14:35:46;7.10;1.00
1680;DHT22;838;51.794;12.258;2023-04-03T14:38:30;7.00;1.00
1680;DHT22;838;51.794;12.258;2023-04-03T14:40:57;7.00;1.00
1680;DHT22;838;51.794;12.258;2023-04-03T14:43:23;7.10;1.00
1680;DHT22;838;51.794;12.258;2023-04-03T14:45:50;7.50;1.00
1680;DHT22;838;51.794;12.258;2023-04-03T14:48:20;7.60;1.00
1680;DHT22;838;51.794;12.258;2023-04-03T14:50:46;7.80;1.00
1680;DHT22;838;51.794;12.258;2023-04-03T14:53:14;7.50;1.00
1680;DHT22;838;51.794;12.258;2023-04-03T14:55:43;7.20;1.00
1680;DHT22;838;51.794;12.258;2023-04-03T14:58:17;7.00;1.00
1680;DHT22;838;51.794;12.258;2023-04-03T15:00:44;6.90;1.00
1680;DHT22;838;51.794;12.258;2023-04-03T15:03:19;6.80;1.00
1680;DHT22;838;51.794;12.258;2023-04-03T15:05:47;7.10;1.00
1680;DHT22;838;51.794;12.258;2023-04-03T15:08:25;7.00;1.00
1680;DHT22;838;51.794;12.258;2023-04-03T15:10:51;6.90;1.00
1680;DHT22;838;51.794;12.258;2023-04-03T15:13:24;6.80;1.00
1680;DHT22;838;51.794;12.258;2023-04-03T15:15:52;6.80;1.00
1680;DHT22;838;51.794;12.258;2023-04-03T15:18:24;6.90;1.00
1680;DHT22;838;51.794;12.258;2023-04-03T15:20:52;7.00;1.00
1680;DHT22;838;51.794;12.258;2023-04-03T15:23:18;6.70;1.00
1680;DHT22;838;51.794;12.258;2023-04-03T15:25:46;6.70;1.00
1680;DHT22;838;51.794;12.258;2023-04-03T15:28:35;6.90;1.00
1680;DHT22;838;51.794;12.258;2023-04-03T15:31:01;6.90;1.00
1680;DHT22;838;51.794;12.258;2023-04-03T15:33:27;7.00;1.00
1680;DHT22;838;51.794;12.258;2023-04-03T15:35:53;6.90;1.00
1680;DHT22;838;51.794;12.258;2023-04-03T15:38:19;6.90;1.00
1680;DHT22;838;51.794;12.258;2023-04-03T15:40:45;6.90;1.00
1680;DHT22;838;51.794;12.258;2023-04-03T15:43:13;7.10;1.00
1680;DHT22;838;51.794;12.258;2023-04-03T15:45:40;6.70;1.00
1680;DHT22;838;51.794;12.258;2023-04-03T15:48:06;6.40;1.00
1680;DHT22;838;51.794;12.258;2023-04-03T15:50:33;6.50;1.00
1680;DHT22;838;51.794;12.258;2023-04-03T15:52:59;6.60;1.00
1680;DHT22;838;51.794;12.258;2023-04-03T15:55:28;6.80;1.00
1680;DHT22;838;51.794;12.258;2023-04-03T15:57:54;6.60;1.00
1680;DHT22;838;51.794;12.258;2023-04-03T16:00:21;6.80;1.00
1680;DHT22;838;51.794;12.258;2023-04-03T16:02:49;7.00;1.00
1680;DHT22;838;51.794;12.258;2023-04-03T16:05:17;7.10;1.00
1680;DHT22;838;51.794;12.258;2023-04-03T16:07:44;7.20;1.00
1680;DHT22;838;51.794;12.258;2023-04-03T16:10:12;7.10;1.00
1680;DHT22;838;51.794;12.258;2023-04-03T16:12:38;7.10;1.00
1680;DHT22;838;51.794;12.258;2023-04-03T16:15:05;7.00;1.00
1680;DHT22;838;51.794;12.258;2023-04-03T16:17:32;6.60;1.00
1680;DHT22;838;51.794;12.258;2023-04-03T16:19:59;6.40;1.00
1680;DHT22;838;51.794;12.258;2023-04-03T16:22:26;6.40;1.00
1680;DHT22;838;51.794;12.258;2023-04-03T16:24:53;6.20;1.00
1680;DHT22;838;51.794;12.258;2023-04-03T16:27:19;6.10;1.00
1680;DHT22;838;51.794;12.258;2023-04-03T16:29:45;6.00;1.00
1680;DHT22;838;51.794;12.258;2023-04-03T16:32:11;6.00;1.00
1680;DHT22;838;51.794;12.258;2023-04-03T16:34:37;6.00;1.00
1680;DHT22;838;51.794;12.258;2023-04-03T16:37:03;5.80;1.00
1680;DHT22;838;51.794;12.258;2023-04-03T16:41:55;5.80;1.00
1680;DHT22;838;51.794;12.258;2023-04-03T16:44:21;5.80;1.00
1680;DHT22;838;51.794;12.258;2023-04-03T16:46:46;5.90;1.00
1680;DHT22;838;51.794;12.258;2023-04-03T16:49:12;5.90;1.00
1680;DHT22;838;51.794;12.258;2023-04-03T16:51:38;5.60;1.00
1680;DHT22;838;51.794;12.258;2023-04-03T16:54:03;5.60;1.00
1680;DHT22;838;51.794;12.258;2023-04-03T16:56:29;5.60;1.00
1680;DHT22;838;51.794;12.258;2023-04-03T16:58:55;5.50;1.00
1680;DHT22;838;51.794;12.258;2023-04-03T17:01:22;5.50;1.00
1680;DHT22;838;51.794;12.258;2023-04-03T17:03:48;5.60;1.00
1680;DHT22;838;51.794;12.258;2023-04-03T17:06:19;5.80;1.00
1680;DHT22;838;51.794;12.258;2023-04-03T17:08:47;5.80;1.00
1680;DHT22;838;51.794;12.258;2023-04-03T17:11:13;5.70;1.00
1680;DHT22;838;51.794;12.258;2023-04-03T17:13:39;5.60;1.00
1680;DHT22;838;51.794;12.258;2023-04-03T17:16:08;5.40;1.00
1680;DHT22;838;51.794;12.258;2023-04-03T17:18:35;5.40;1.00
1680;DHT22;838;51.794;12.258;2023-04-03T17:21:02;5.30;1.00
1680;DHT22;838;51.794;12.258;2023-04-03T17:23:28;5.40;1.00
1680;DHT22;838;51.794;12.258;2023-04-03T17:25:54;5.30;1.00
1680;DHT22;838;51.794;12.258;2023-04-03T17:28:21;5.20;1.00
1680;DHT22;838;51.794;12.258;2023-04-03T17:30:53;5.20;1.00
1680;DHT22;838;51.794;12.258;2023-04-03T17:33:19;5.30;1.00
1680;DHT22;838;51.794;12.258;2023-04-03T17:35:45;5.30;1.00
1680;DHT22;838;51.794;12.258;2023-04-03T17:38:10;5.30;1.00
1680;DHT22;838;51.794;12.258;2023-04-03T17:40:36;5.40;1.00
1680;DHT22;838;51.794;12.258;2023-04-03T17:43:02;5.40;1.00
1680;DHT22;838;51.794;12.258;2023-04-03T17:45:28;5.50;1.00
1680;DHT22;838;51.794;12.258;2023-04-03T17:47:53;5.50;1.00
1680;DHT22;838;51.794;12.258;2023-04-03T17:50:19;5.50;1.00
1680;DHT22;838;51.794;12.258;2023-04-03T17:52:45;5.60;1.00
1680;DHT22;838;51.794;12.258;2023-04-03T17:55:11;5.30;1.00
1680;DHT22;838;51.794;12.258;2023-04-03T17:57:42;5.20;1.00
1680;DHT22;838;51.794;12.258;2023-04-03T18:00:09;5.20;1.00
1680;DHT22;838;51.794;12.258;2023-04-03T18:02:35;5.20;1.00
1680;DHT22;838;51.794;12.258;2023-04-03T18:05:01;5.30;1.00
1680;DHT22;838;51.794;12.258;2023-04-03T18:07:27;5.30;1.00
1680;DHT22;838;51.794;12.258;2023-04-03T18:09:54;5.20;1.00
1680;DHT22;838;51.794;12.258;2023-04-03T18:12:21;5.10;1.00
1680;DHT22;838;51.794;12.258;2023-04-03T18:14:47;5.20;1.00
1680;DHT22;838;51.794;12.258;2023-04-03T18:17:14;5.10;1.00
1680;DHT22;838;51.794;12.258;2023-04-03T18:19:40;5.00;1.00
1680;DHT22;838;51.794;12.258;2023-04-03T18:22:14;5.10;1.00
1680;DHT22;838;51.794;12.258;2023-04-03T18:24:41;5.20;1.00
1680;DHT22;838;51.794;12.258;2023-04-03T18:27:13;5.30;1.00
1680;DHT22;838;51.794;12.258;2023-04-03T18:29:41;5.20;1.00
1680;DHT22;838;51.794;12.258;2023-04-03T18:32:10;5.10;1.00
1680;DHT22;838;51.794;12.258;2023-04-03T18:34:36;5.00;1.00
1680;DHT22;838;51.794;12.258;2023-04-03T18:37:02;4.90;1.00
1680;DHT22;838;51.794;12.258;2023-04-03T18:39:28;4.90;1.00
1680;DHT22;838;51.794;12.258;2023-04-03T18:41:56;5.10;1.00
1680;DHT22;838;51.794;12.258;2023-04-03T18:44:24;5.00;1.00
1680;DHT22;838;51.794;12.258;2023-04-03T18:46:52;4.70;1.00